Time;durP1;ratioP1;P1;durP2;ratioP2;P2;SDS_P1;SDS_P2;PMS_P1;PMS_P2;Temp;Humidity;BMP_temperature;BMP_pressure;BME280_temperature;BME280_humidity;BME280_pressure;Samples;Min_cycle;Max_cycle;Signal;HPM_P1;HPM_P2
2023/01/31 00:01:20;;;;;;;7.53;5.70;;;3.90;96.30;;;;;;5109399;28;20450;-37
2023/01/31 00:03:47;;;;;;;10.50;5.33;;;3.90;63.90;;;;;;5116917;28;20557;-37
2023/01/31 00:06:18;;;;;;;7.30;4.80;;;3.80;98.90;;;;;;5115088;28;20474;-37
2023/01/31 00:08:45;;;;;;;8.17;5.40;;;3.80;99.90;;;;;;5114975;28;20436;-37
2023/01/31 00:11:11;;;;;;;10.10;5.97;;;3.80;95.90;;;;;;5114476;28;20519;-39
2023/01/31 00:13:37;;;;;;;7.07;5.00;;;3.70;99.90;;;;;;5114422;28;20421;-38
2023/01/31 00:16:03;;;;;;;8.03;5.10;;;3.70;99.90;;;;;;5115078;28;20756;-37
2023/01/31 00:18:29;;;;;;;11.13;4.73;;;3.70;99.90;;;;;;5109024;28;20267;-36
2023/01/31 00:20:55;;;;;;;8.37;5.50;;;3.60;99.90;;;;;;5095941;28;20487;-38
2023/01/31 00:23:20;;;;;;;8.63;4.80;;;3.60;99.90;;;;;;5095812;28;20474;-37
2023/01/31 00:25:46;;;;;;;11.90;5.43;;;3.60;99.90;;;;;;5095599;28;20188;-37
2023/01/31 00:28:12;;;;;;;8.33;5.33;;;3.50;99.90;;;;;;5110865;28;20196;-36
2023/01/31 00:30:37;;;;;;;7.00;5.10;;;3.50;99.90;;;;;;5094995;28;20181;-38
2023/01/31 00:33:03;;;;;;;6.83;4.90;;;3.40;99.90;;;;;;5095598;28;20543;-37
2023/01/31 00:35:29;;;;;;;7.90;5.60;;;3.40;99.90;;;;;;5095514;28;20277;-38
2023/01/31 00:37:54;;;;;;;7.33;5.67;;;3.30;99.90;;;;;;5095440;28;20231;-38
2023/01/31 00:40:20;;;;;;;11.13;5.87;;;3.30;99.90;;;;;;5094290;28;20200;-36
2023/01/31 00:42:46;;;;;;;7.40;5.50;;;3.30;1.00;;;;;;5097348;28;20207;-37
2023/01/31 00:45:12;;;;;;;8.73;5.20;;;3.20;1.00;;;;;;5099262;28;20561;-37
2023/01/31 00:47:37;;;;;;;9.43;5.50;;;3.20;1.00;;;;;;5099852;28;20253;-38
2023/01/31 00:50:04;;;;;;;9.77;5.37;;;3.20;1.00;;;;;;5099412;28;20425;-37
2023/01/31 00:52:30;;;;;;;8.93;4.97;;;3.10;1.00;;;;;;5099137;28;20169;-37
2023/01/31 00:54:55;;;;;;;5.80;5.03;;;3.10;1.00;;;;;;5099740;28;20437;-37
2023/01/31 00:57:21;;;;;;;6.27;5.03;;;3.10;1.00;;;;;;5112087;28;20238;-37
2023/01/31 00:59:46;;;;;;;9.57;5.97;;;3.10;1.00;;;;;;5099377;28;20179;-36
2023/01/31 01:02:12;;;;;;;8.77;6.20;;;3.10;1.00;;;;;;5109463;28;20187;-36
2023/01/31 01:04:38;;;;;;;9.00;5.73;;;3.00;1.00;;;;;;5117666;28;20266;-36
2023/01/31 01:07:03;;;;;;;8.20;4.90;;;3.00;1.00;;;;;;5118097;28;21540;-37
2023/01/31 01:09:29;;;;;;;14.23;5.60;;;3.00;1.00;;;;;;5118774;28;20179;-37
2023/01/31 01:11:54;;;;;;;9.10;5.27;;;3.00;1.00;;;;;;5118516;28;20191;-37
2023/01/31 01:14:20;;;;;;;8.27;5.67;;;3.00;1.00;;;;;;5118190;28;20179;-37
2023/01/31 01:16:46;;;;;;;9.07;4.90;;;2.90;1.00;;;;;;5108080;28;20207;-37
2023/01/31 01:19:15;;;;;;;8.23;4.50;;;2.90;1.00;;;;;;5098035;28;20389;-37
2023/01/31 01:21:43;;;;;;;9.60;5.03;;;2.90;1.00;;;;;;5098123;28;20518;-37
2023/01/31 01:24:16;;;;;;;7.27;4.97;;;2.90;1.00;;;;;;5096999;28;20509;-37
2023/01/31 01:26:43;;;;;;;9.40;4.93;;;2.90;1.00;;;;;;5098078;28;20410;-36
2023/01/31 01:29:09;;;;;;;9.90;4.87;;;2.90;1.00;;;;;;5099585;28;20702;-37
2023/01/31 01:31:36;;;;;;;10.57;6.07;;;2.80;1.00;;;;;;5098749;28;20421;-37
2023/01/31 01:34:05;;;;;;;9.20;4.70;;;2.80;1.00;;;;;;5099216;28;20419;-36
2023/01/31 01:36:33;;;;;;;8.37;5.20;;;2.90;1.00;;;;;;5098499;28;20493;-37
2023/01/31 01:38:58;;;;;;;8.10;4.47;;;2.80;1.00;;;;;;5098416;28;20418;-37
2023/01/31 01:41:25;;;;;;;10.50;5.73;;;2.80;1.00;;;;;;5098685;28;20414;-37
2023/01/31 01:43:57;;;;;;;9.07;6.47;;;2.80;32.20;;;;;;5098694;28;20527;-36
2023/01/31 01:46:36;;;;;;;11.03;5.83;;;2.80;59.20;;;;;;5096663;28;20513;-36
2023/01/31 01:49:16;;;;;;;10.57;5.30;;;2.80;99.90;;;;;;5095111;28;20421;-38
2023/01/31 01:51:42;;;;;;;8.90;4.73;;;2.80;99.90;;;;;;5096785;28;20410;-37
2023/01/31 01:54:12;;;;;;;10.00;5.90;;;2.80;99.90;;;;;;5094236;28;20693;-36
2023/01/31 01:56:40;;;;;;;12.03;5.30;;;2.80;99.90;;;;;;5096040;28;20512;-36
2023/01/31 01:59:15;;;;;;;7.93;5.40;;;2.80;99.90;;;;;;5094556;28;20654;-37
2023/01/31 02:01:42;;;;;;;8.63;5.23;;;2.80;99.90;;;;;;5095288;28;20414;-39
2023/01/31 02:04:13;;;;;;;8.47;5.07;;;2.80;99.90;;;;;;5096074;28;20486;-37
2023/01/31 02:06:40;;;;;;;7.80;5.20;;;2.80;99.90;;;;;;5095042;28;20540;-37
2023/01/31 02:09:07;;;;;;;7.20;4.83;;;2.80;99.90;;;;;;5096757;28;20410;-37
2023/01/31 02:11:33;;;;;;;10.73;5.23;;;2.70;99.90;;;;;;5097855;28;20519;-37
2023/01/31 02:14:04;;;;;;;7.43;5.23;;;2.70;99.90;;;;;;5097200;28;20648;-37
2023/01/31 02:16:30;;;;;;;8.33;4.67;;;2.70;99.90;;;;;;5096748;28;20204;-37
2023/01/31 02:18:56;;;;;;;9.43;5.40;;;2.70;99.90;;;;;;5097844;28;20422;-37
2023/01/31 02:22:00;;;;;;;11.33;4.67;;;2.70;82.50;;;;;;5098220;28;20176;-36
2023/01/31 02:24:47;;;;;;;6.57;4.30;;;2.60;64.60;;;;;;5096696;28;20519;-37
2023/01/31 02:27:21;;;;;;;4.80;4.17;;;2.60;53.60;;;;;;5098409;28;20422;-37
2023/01/31 02:30:12;;;;;;;6.97;5.03;;;2.60;54.80;;;;;;5097959;28;20703;-37
2023/01/31 02:32:52;;;;;;;10.37;5.73;;;2.60;52.20;;;;;;5098270;28;20411;-38
2023/01/31 02:35:37;;;;;;;9.60;5.00;;;2.60;11.30;;;;;;5097210;28;20437;-37
2023/01/31 02:38:17;;;;;;;10.57;5.03;;;2.50;13.60;;;;;;5096645;28;20419;-37
2023/01/31 02:41:09;;;;;;;8.03;5.60;;;2.50;10.00;;;;;;5097794;28;20418;-37
2023/01/31 02:46:52;;;;;;;7.60;4.70;;;2.50;26.70;;;;;;5097550;28;20460;-37
2023/01/31 02:49:34;;;;;;;8.23;5.03;;;2.50;5.50;;;;;;5076364;28;20430;-38
2023/01/31 02:52:21;;;;;;;9.93;4.83;;;2.50;1.00;;;;;;5095913;28;20536;-36
2023/01/31 02:57:45;;;;;;;5.90;4.90;;;2.50;1.00;;;;;;5094048;28;20564;-37
2023/01/31 03:00:12;;;;;;;7.20;5.30;;;2.40;1.00;;;;;;5096535;28;20426;-37
2023/01/31 03:02:38;;;;;;;5.93;4.57;;;2.50;1.00;;;;;;5095694;28;20442;-37
2023/01/31 03:05:04;;;;;;;10.83;5.90;;;2.40;1.00;;;;;;5096616;28;20438;-36
2023/01/31 03:07:33;;;;;;;10.50;5.30;;;2.40;1.00;;;;;;5096777;28;20183;-37
2023/01/31 03:10:04;;;;;;;25.97;12.30;;;2.40;1.00;;;;;;5097200;28;20423;-37
2023/01/31 03:13:21;;;;;;;33.57;16.27;;;2.40;1.00;;;;;;5096809;28;20442;-37
2023/01/31 03:18:44;;;;;;;11.00;7.53;;;2.40;1.00;;;;;;5054884;28;20416;-36
2023/01/31 03:21:15;;;;;;;10.93;6.33;;;2.40;1.00;;;;;;5082440;28;20426;-37
2023/01/31 03:23:43;;;;;;;6.23;5.00;;;2.40;1.00;;;;;;5095321;28;20481;-37
2023/01/31 03:26:09;;;;;;;10.00;5.17;;;2.40;1.00;;;;;;5095393;28;20454;-37
2023/01/31 03:28:40;;;;;;;7.03;5.17;;;2.40;1.00;;;;;;5095840;28;20431;-37
2023/01/31 03:31:16;;;;;;;12.67;5.60;;;2.40;1.00;;;;;;5094533;28;20689;-37
2023/01/31 03:33:49;;;;;;;7.60;5.70;;;2.30;1.00;;;;;;5095196;28;20501;-37
2023/01/31 03:36:33;;;;;;;7.27;4.70;;;2.30;1.00;;;;;;5093957;28;20863;-37
2023/01/31 03:39:31;;;;;;;9.17;5.70;;;2.30;1.00;;;;;;5096607;28;20446;-37
2023/01/31 03:42:01;;;;;;;12.30;6.20;;;2.30;1.00;;;;;;5097222;28;20415;-36
2023/01/31 03:44:56;;;;;;;8.43;5.33;;;2.30;1.00;;;;;;5096507;28;20422;-37
2023/01/31 03:47:32;;;;;;;8.03;5.63;;;2.20;1.00;;;;;;5109927;28;20788;-37
2023/01/31 03:50:03;;;;;;;6.70;5.13;;;2.20;1.00;;;;;;5117062;28;20417;-37
2023/01/31 03:52:33;;;;;;;9.07;5.87;;;2.20;1.00;;;;;;5111447;28;20437;-37
2023/01/31 03:55:09;;;;;;;9.60;5.67;;;2.20;1.00;;;;;;5095636;28;20744;-36
2023/01/31 03:57:39;;;;;;;8.97;5.07;;;2.20;1.00;;;;;;5096169;28;20922;-37
2023/01/31 04:00:08;;;;;;;9.90;5.70;;;2.20;1.00;;;;;;5095373;28;20491;-38
2023/01/31 04:02:36;;;;;;;10.80;5.60;;;2.20;1.00;;;;;;5096295;28;20494;-36
2023/01/31 04:05:08;;;;;;;8.13;5.53;;;2.20;1.00;;;;;;5095080;28;20776;-37
2023/01/31 04:07:35;;;;;;;6.53;4.40;;;2.20;1.00;;;;;;5094062;28;20414;-37
2023/01/31 04:10:02;;;;;;;12.03;5.37;;;2.10;1.00;;;;;;5095794;28;20414;-37
2023/01/31 04:12:27;;;;;;;8.30;5.30;;;2.10;1.00;;;;;;5093971;28;20411;-37
2023/01/31 04:14:53;;;;;;;9.53;5.63;;;2.10;1.00;;;;;;5094938;28;20422;-37
2023/01/31 04:17:18;;;;;;;7.07;4.40;;;2.10;1.00;;;;;;5094000;28;20204;-37
2023/01/31 04:19:44;;;;;;;12.83;6.30;;;2.10;1.00;;;;;;5096733;28;20184;-37
2023/01/31 04:22:09;;;;;;;9.77;5.30;;;2.10;1.00;;;;;;5097129;28;20200;-37
2023/01/31 04:24:35;;;;;;;8.67;5.50;;;2.10;1.00;;;;;;5095942;28;20239;-37
2023/01/31 04:27:01;;;;;;;8.10;5.00;;;2.10;1.00;;;;;;5097379;28;20272;-37
2023/01/31 04:29:27;;;;;;;8.87;5.30;;;2.00;1.00;;;;;;5100678;28;20525;-37
2023/01/31 04:31:52;;;;;;;10.40;5.40;;;2.00;1.00;;;;;;5100775;28;20192;-38
2023/01/31 04:34:18;;;;;;;8.70;5.77;;;2.00;1.00;;;;;;5117103;28;20176;-36
2023/01/31 04:36:43;;;;;;;12.87;7.00;;;2.00;1.00;;;;;;5108545;28;20200;-37
2023/01/31 04:39:10;;;;;;;8.53;5.80;;;2.00;1.00;;;;;;5096839;28;20465;-37
2023/01/31 04:41:35;;;;;;;10.80;6.33;;;2.00;1.00;;;;;;5097055;28;20192;-37
2023/01/31 04:44:01;;;;;;;11.00;7.10;;;2.00;1.00;;;;;;5096569;28;20859;-37
2023/01/31 04:46:26;;;;;;;9.60;6.20;;;2.00;1.00;;;;;;5097218;28;20177;-37
2023/01/31 04:48:52;;;;;;;7.00;5.97;;;1.90;1.00;;;;;;5098643;28;20264;-37
2023/01/31 04:51:18;;;;;;;7.70;5.67;;;1.90;1.00;;;;;;5098026;28;20286;-37
2023/01/31 04:53:44;;;;;;;6.70;5.27;;;1.90;1.00;;;;;;5098151;28;20172;-37
2023/01/31 04:56:09;;;;;;;12.87;6.03;;;1.90;1.00;;;;;;5098249;28;20463;-37
2023/01/31 04:58:35;;;;;;;7.30;5.67;;;1.90;1.00;;;;;;5098274;28;20509;-37
2023/01/31 05:01:00;;;;;;;7.80;6.07;;;1.90;1.00;;;;;;5098168;28;20184;-37
2023/01/31 05:03:26;;;;;;;9.03;4.80;;;1.90;1.00;;;;;;5097516;28;20196;-37
2023/01/31 05:05:52;;;;;;;12.23;6.10;;;1.90;1.00;;;;;;5103022;28;20176;-36
2023/01/31 05:08:17;;;;;;;7.43;5.60;;;1.90;1.00;;;;;;5111120;28;20403;-37
2023/01/31 05:10:43;;;;;;;8.33;6.07;;;1.80;99.90;;;;;;5119063;28;20175;-37
2023/01/31 05:13:09;;;;;;;14.70;5.47;;;1.80;99.90;;;;;;5119117;28;20176;-36
2023/01/31 05:15:35;;;;;;;6.00;5.20;;;1.80;99.90;;;;;;5113328;28;20215;-37
2023/01/31 05:18:02;;;;;;;11.60;5.83;;;1.80;99.90;;;;;;5116382;28;20425;-36
2023/01/31 05:20:33;;;;;;;6.97;5.40;;;1.80;99.90;;;;;;5113430;28;20426;-36
2023/01/31 05:22:59;;;;;;;10.33;5.57;;;1.80;99.90;;;;;;5096210;28;20406;-37
2023/01/31 05:25:25;;;;;;;9.00;5.97;;;1.80;99.90;;;;;;5110500;28;20487;-37
2023/01/31 05:27:51;;;;;;;9.53;5.67;;;1.70;99.90;;;;;;5116504;28;20176;-37
2023/01/31 05:30:18;;;;;;;9.13;5.67;;;1.70;99.90;;;;;;5115646;28;20445;-37
2023/01/31 05:32:44;;;;;;;9.83;5.30;;;1.70;99.90;;;;;;5096532;28;20780;-37
2023/01/31 05:35:11;;;;;;;8.33;5.50;;;1.70;99.90;;;;;;5097486;28;20430;-37
2023/01/31 05:37:37;;;;;;;7.03;5.17;;;1.70;99.90;;;;;;5098199;28;21088;-37
2023/01/31 05:40:03;;;;;;;9.77;5.93;;;1.70;99.90;;;;;;5109886;28;20467;-37
2023/01/31 05:42:29;;;;;;;6.30;5.10;;;1.70;99.90;;;;;;5115998;28;20907;-36
2023/01/31 05:44:54;;;;;;;9.53;5.10;;;1.70;99.90;;;;;;5117058;28;20457;-37
2023/01/31 05:47:22;;;;;;;9.83;6.03;;;1.70;99.90;;;;;;5118153;28;20209;-37
2023/01/31 05:49:47;;;;;;;12.93;6.27;;;1.70;99.90;;;;;;5115780;28;20167;-37
2023/01/31 05:52:13;;;;;;;12.00;5.77;;;1.70;1.00;;;;;;5116505;28;20414;-36
2023/01/31 05:54:39;;;;;;;6.80;5.97;;;1.70;1.00;;;;;;5114452;28;20187;-37
2023/01/31 05:57:05;;;;;;;7.13;5.80;;;1.70;1.00;;;;;;5114934;28;20200;-37
2023/01/31 05:59:32;;;;;;;7.70;5.60;;;1.70;1.00;;;;;;5113107;28;20176;-37
2023/01/31 06:01:58;;;;;;;10.97;5.80;;;1.60;1.00;;;;;;5113646;28;20432;-37
2023/01/31 06:04:23;;;;;;;7.80;6.10;;;1.60;53.90;;;;;;5113061;28;20426;-36
2023/01/31 06:06:49;;;;;;;8.93;5.00;;;1.60;99.90;;;;;;5113984;28;20184;-36
2023/01/31 06:09:14;;;;;;;11.40;6.47;;;1.60;99.90;;;;;;5113399;28;20492;-36
2023/01/31 06:11:40;;;;;;;11.90;6.33;;;1.60;99.90;;;;;;5112786;28;20184;-38
2023/01/31 06:14:06;;;;;;;7.53;5.37;;;1.60;99.90;;;;;;5110404;28;20167;-36
2023/01/31 06:16:32;;;;;;;8.60;6.17;;;1.60;99.90;;;;;;5108603;28;20595;-36
2023/01/31 06:18:58;;;;;;;8.77;5.73;;;1.60;99.90;;;;;;5108876;28;20417;-36
2023/01/31 06:21:24;;;;;;;8.47;6.50;;;1.60;99.90;;;;;;5107933;28;20450;-36
2023/01/31 06:23:49;;;;;;;8.23;6.37;;;1.60;99.90;;;;;;5110527;28;20640;-36
2023/01/31 06:26:15;;;;;;;11.10;6.20;;;1.60;99.90;;;;;;5109339;28;20675;-37
2023/01/31 06:28:40;;;;;;;13.33;6.00;;;1.60;99.90;;;;;;5108939;28;20406;-35
2023/01/31 06:31:10;;;;;;;12.77;6.80;;;1.60;99.90;;;;;;5110446;28;20868;-36
2023/01/31 06:33:36;;;;;;;9.67;6.73;;;1.50;99.90;;;;;;5111590;28;20402;-36
2023/01/31 06:36:02;;;;;;;9.73;6.50;;;1.60;99.90;;;;;;5110747;28;20484;-37
2023/01/31 06:38:29;;;;;;;8.50;6.17;;;1.50;99.90;;;;;;5112192;28;20582;-37
2023/01/31 06:40:55;;;;;;;13.03;5.83;;;1.50;99.90;;;;;;5091560;28;20896;-35
2023/01/31 06:43:20;;;;;;;9.83;6.80;;;1.50;99.90;;;;;;5110190;28;20421;-36
2023/01/31 06:45:48;;;;;;;18.50;6.83;;;1.50;99.90;;;;;;5107781;28;20413;-35
2023/01/31 06:48:14;;;;;;;12.27;7.40;;;1.50;99.90;;;;;;5109569;28;20418;-36
2023/01/31 06:50:40;;;;;;;10.37;6.50;;;1.50;99.90;;;;;;5110393;28;20605;-36
2023/01/31 06:53:06;;;;;;;8.57;6.10;;;1.50;99.90;;;;;;5110801;28;20421;-36
2023/01/31 06:55:31;;;;;;;11.33;6.17;;;1.50;99.90;;;;;;5107885;28;20429;-36
2023/01/31 06:57:57;;;;;;;12.50;6.93;;;1.50;99.90;;;;;;5110705;28;20172;-36
2023/01/31 07:00:25;;;;;;;9.83;6.37;;;1.60;99.90;;;;;;5109127;28;20672;-36
2023/01/31 07:02:51;;;;;;;8.63;6.70;;;1.60;99.90;;;;;;5108567;28;20188;-36
2023/01/31 07:05:18;;;;;;;8.10;5.93;;;1.60;99.90;;;;;;5107389;28;20410;-36
2023/01/31 07:07:45;;;;;;;8.90;7.00;;;1.60;99.90;;;;;;5108276;28;20564;-36
2023/01/31 07:10:11;;;;;;;10.63;7.97;;;1.60;99.90;;;;;;5108938;28;20939;-36
2023/01/31 07:12:36;;;;;;;16.60;7.33;;;1.70;1.00;;;;;;5108912;28;20922;-35
2023/01/31 07:15:02;;;;;;;10.40;6.77;;;1.70;1.00;;;;;;5110817;28;20553;-36
2023/01/31 07:17:28;;;;;;;10.47;7.47;;;1.70;1.00;;;;;;5110452;28;20567;-35
2023/01/31 07:19:54;;;;;;;15.63;7.23;;;1.70;1.00;;;;;;5112509;28;20421;-36
2023/01/31 07:22:19;;;;;;;8.73;6.53;;;1.80;1.00;;;;;;5110760;28;20172;-36
2023/01/31 07:24:45;;;;;;;11.00;6.90;;;1.80;1.00;;;;;;5112933;28;20235;-36
2023/01/31 07:27:14;;;;;;;10.77;7.67;;;1.90;1.00;;;;;;5113934;28;20250;-36
2023/01/31 07:29:40;;;;;;;14.03;7.33;;;2.00;99.90;;;;;;5114780;28;20514;-36
2023/01/31 07:32:05;;;;;;;11.00;6.80;;;2.10;99.90;;;;;;5113875;28;20478;-36
2023/01/31 07:34:31;;;;;;;8.97;7.13;;;2.20;99.90;;;;;;5115501;28;20178;-38
2023/01/31 07:36:57;;;;;;;14.17;7.60;;;2.40;99.90;;;;;;5112382;28;20492;-36
2023/01/31 07:39:22;;;;;;;7.73;6.50;;;2.50;81.20;;;;;;5109129;28;20168;-36
2023/01/31 07:41:48;;;;;;;10.00;6.90;;;2.70;1.00;;;;;;5109799;28;20172;-36
2023/01/31 07:44:14;;;;;;;10.57;7.00;;;2.90;1.00;;;;;;5108972;28;20195;-37
2023/01/31 07:46:40;;;;;;;13.23;7.80;;;3.20;99.90;;;;;;5113123;28;20425;-36
2023/01/31 07:49:06;;;;;;;10.70;6.63;;;3.40;99.90;;;;;;5112938;28;20172;-36
2023/01/31 07:51:31;;;;;;;12.57;6.43;;;3.70;1.00;;;;;;5111143;28;20204;-36
2023/01/31 07:53:57;;;;;;;11.87;6.87;;;3.90;1.00;;;;;;5111578;28;20606;-36
2023/01/31 07:56:23;;;;;;;9.87;6.20;;;4.20;22.80;;;;;;5110661;28;20204;-36
2023/01/31 07:58:49;;;;;;;10.80;6.80;;;4.50;99.90;;;;;;5112058;28;20172;-36
2023/01/31 08:04:08;;;;;;;9.47;5.80;;;5.10;1.00;;;;;;5113181;28;20600;-36
2023/01/31 08:06:34;;;;;;;12.77;6.13;;;5.40;99.90;;;;;;5112360;28;20425;-36
2023/01/31 08:09:00;;;;;;;11.30;7.00;;;5.80;1.00;;;;;;5111486;28;20530;-36
2023/01/31 08:11:26;;;;;;;8.23;5.50;;;6.10;1.00;;;;;;5113920;28;20413;-36
2023/01/31 08:13:52;;;;;;;13.37;6.20;;;6.40;99.90;;;;;;5113956;28;20489;-37
2023/01/31 08:16:19;;;;;;;6.73;3.13;;;6.80;12.50;;;;;;5114091;28;20228;-37
2023/01/31 08:18:44;;;;;;;5.20;2.70;;;8.20;1.00;;;;;;5114041;28;20416;-38
2023/01/31 08:21:12;;;;;;;6.40;2.87;;;9.80;1.00;;;;;;5114412;28;20421;-37
2023/01/31 08:23:39;;;;;;;6.67;3.60;;;11.20;99.90;;;;;;5111704;28;20754;-37
2023/01/31 08:26:11;;;;;;;7.87;4.77;;;12.30;99.90;;;;;;5111948;28;20522;-39
2023/01/31 08:28:38;;;;;;;5.70;4.87;;;12.80;99.90;;;;;;5111837;28;20895;-37
2023/01/31 08:31:04;;;;;;;9.17;4.90;;;13.00;99.90;;;;;;5110753;28;20448;-36
2023/01/31 08:33:29;;;;;;;11.50;5.60;;;13.20;1.00;;;;;;5111429;28;20421;-37
2023/01/31 08:35:55;;;;;;;10.20;6.10;;;13.50;1.00;;;;;;5110305;28;20517;-37
2023/01/31 08:38:21;;;;;;;7.33;5.23;;;13.80;1.00;;;;;;5110768;28;20411;-36
2023/01/31 08:40:47;;;;;;;11.83;5.67;;;14.20;1.00;;;;;;5111544;28;20175;-37
2023/01/31 08:43:12;;;;;;;9.27;5.30;;;14.50;1.00;;;;;;5112026;28;20580;-37
2023/01/31 08:45:39;;;;;;;8.87;5.50;;;14.80;1.00;;;;;;5112723;28;20256;-36
2023/01/31 08:48:05;;;;;;;9.63;5.57;;;15.20;1.00;;;;;;5111870;28;20271;-37
2023/01/31 08:50:32;;;;;;;7.90;4.40;;;15.70;1.00;;;;;;5112220;28;20901;-37
2023/01/31 08:53:00;;;;;;;10.93;5.23;;;16.30;1.00;;;;;;5111537;28;20471;-36
2023/01/31 08:55:27;;;;;;;5.93;4.27;;;16.90;1.00;;;;;;5113215;28;20477;-36
2023/01/31 08:57:53;;;;;;;8.00;4.83;;;17.50;1.00;;;;;;5114529;28;20775;-36
2023/01/31 09:00:20;;;;;;;9.60;4.43;;;18.00;1.00;;;;;;5112636;28;20421;-36
2023/01/31 09:02:56;;;;;;;7.53;5.00;;;18.70;1.00;;;;;;5112367;28;20176;-36
2023/01/31 09:05:22;;;;;;;6.27;3.90;;;19.50;1.00;;;;;;5117485;28;20490;-36
2023/01/31 09:07:48;;;;;;;6.57;3.60;;;20.10;1.00;;;;;;5117862;28;20414;-37
2023/01/31 09:10:14;;;;;;;8.50;3.87;;;20.40;1.00;;;;;;5118523;28;20879;-37
2023/01/31 09:12:39;;;;;;;6.80;4.00;;;20.30;1.00;;;;;;5116535;28;20176;-37
2023/01/31 09:15:05;;;;;;;7.37;4.40;;;19.90;1.00;;;;;;5116134;28;20172;-37
2023/01/31 09:17:31;;;;;;;8.73;4.50;;;19.80;1.00;;;;;;5115356;28;20212;-37
2023/01/31 09:19:57;;;;;;;6.47;3.80;;;19.60;1.00;;;;;;5115956;28;20444;-38
2023/01/31 09:22:23;;;;;;;8.50;4.43;;;19.30;1.00;;;;;;5115272;28;20354;-38
2023/01/31 09:24:48;;;;;;;8.30;4.20;;;19.10;1.00;;;;;;5115840;28;20348;-38
2023/01/31 09:27:14;;;;;;;7.17;4.20;;;18.50;1.00;;;;;;5116517;28;20417;-37
2023/01/31 09:29:40;;;;;;;6.80;4.30;;;17.70;1.00;;;;;;5117481;28;20482;-37
2023/01/31 09:32:06;;;;;;;6.37;4.00;;;17.00;1.00;;;;;;5117449;28;20516;-37
2023/01/31 09:34:32;;;;;;;7.90;4.20;;;16.20;1.00;;;;;;5116082;28;20583;-38
2023/01/31 09:36:58;;;;;;;7.23;4.17;;;15.50;1.00;;;;;;5115784;28;20453;-37
2023/01/31 09:39:24;;;;;;;8.07;4.40;;;14.90;1.00;;;;;;5114757;28;20235;-38
2023/01/31 09:41:57;;;;;;;6.80;3.90;;;14.60;1.00;;;;;;5115120;28;20297;-37
2023/01/31 09:44:33;;;;;;;6.67;4.43;;;14.30;1.00;;;;;;5114862;28;20405;-37
2023/01/31 09:47:09;;;;;;;7.77;3.83;;;14.20;1.00;;;;;;5113729;28;20410;-37
2023/01/31 09:49:46;;;;;;;8.33;5.40;;;14.60;1.00;;;;;;5113170;28;20421;-38
2023/01/31 09:52:12;;;;;;;4.93;3.83;;;14.50;1.00;;;;;;5113106;27;20703;-37
2023/01/31 09:54:39;;;;;;;5.83;4.60;;;14.20;1.00;;;;;;5113265;28;20493;-37
2023/01/31 09:57:07;;;;;;;6.97;3.87;;;13.70;1.00;;;;;;5112685;28;20580;-38
2023/01/31 09:59:59;;;;;;;7.47;3.67;;;13.30;1.00;;;;;;5112237;28;20417;-37
2023/01/31 10:02:27;;;;;;;6.07;3.60;;;13.00;1.00;;;;;;5086067;28;20680;-37
2023/01/31 10:05:12;;;;;;;7.47;3.10;;;12.50;1.00;;;;;;5114924;28;20445;-37
2023/01/31 10:07:43;;;;;;;6.90;3.70;;;12.20;1.00;;;;;;5115078;28;20855;-37
2023/01/31 10:10:23;;;;;;;7.90;3.83;;;11.70;1.00;;;;;;5114233;28;20500;-37
2023/01/31 10:12:53;;;;;;;6.20;3.10;;;11.30;1.00;;;;;;5115691;28;20449;-37
2023/01/31 10:15:34;;;;;;;7.50;3.63;;;10.80;1.00;;;;;;5115191;28;20710;-37
2023/01/31 10:18:35;;;;;;;7.60;3.50;;;10.50;1.00;;;;;;5116960;27;20442;-36
2023/01/31 10:21:13;;;;;;;8.20;4.33;;;10.20;1.00;;;;;;5072262;28;20448;-36
2023/01/31 10:23:44;;;;;;;7.83;4.57;;;10.10;1.00;;;;;;5114032;28;20544;-37
2023/01/31 10:26:17;;;;;;;8.50;4.77;;;10.00;1.00;;;;;;5118070;28;20847;-37
2023/01/31 10:29:02;;;;;;;6.60;3.70;;;10.00;1.00;;;;;;5116695;28;20409;-37
2023/01/31 10:31:35;;;;;;;7.03;3.57;;;9.90;1.00;;;;;;5115633;28;20409;-37
2023/01/31 10:34:37;;;;;;;6.73;3.10;;;9.90;1.00;;;;;;5113468;28;20507;-37
2023/01/31 10:38:04;;;;;;;6.87;3.63;;;10.00;1.00;;;;;;5050208;28;20471;-36
2023/01/31 10:40:34;;;;;;;10.10;3.87;;;10.70;1.00;;;;;;5050370;28;20865;-43
2023/01/31 10:43:20;;;;;;;8.13;3.17;;;11.90;1.00;;;;;;5034966;28;20579;-37
2023/01/31 10:45:45;;;;;;;4.50;3.37;;;12.70;1.00;;;;;;5083839;28;20444;-37
2023/01/31 10:48:20;;;;;;;5.70;4.10;;;13.20;1.00;;;;;;5114417;28;20630;-38
2023/01/31 10:50:58;;;;;;;5.97;3.80;;;13.40;1.00;;;;;;5114446;28;20180;-37
2023/01/31 10:53:38;;;;;;;6.97;3.50;;;13.40;1.00;;;;;;5114733;28;20417;-37
2023/01/31 10:56:11;;;;;;;4.67;2.73;;;13.90;1.00;;;;;;5114384;28;20456;-37
2023/01/31 10:58:37;;;;;;;6.13;3.23;;;14.40;1.00;;;;;;5113540;28;20793;-37
2023/01/31 11:01:07;;;;;;;7.03;3.63;;;14.60;1.00;;;;;;5114061;28;20429;-36
2023/01/31 11:03:33;;;;;;;7.10;3.17;;;14.60;1.00;;;;;;5115322;28;20421;-37
2023/01/31 11:06:00;;;;;;;4.47;2.30;;;14.50;1.00;;;;;;5112045;28;20425;-37
2023/01/31 11:08:58;;;;;;;4.10;2.40;;;14.40;35.20;;;;;;5113053;28;20422;-37
2023/01/31 11:11:26;;;;;;;5.70;2.90;;;14.80;1.00;;;;;;5080528;28;20484;-37
2023/01/31 11:14:09;;;;;;;5.17;2.80;;;15.10;99.90;;;;;;5113027;28;20401;-37
2023/01/31 11:16:39;;;;;;;9.53;3.10;;;15.40;99.90;;;;;;5096135;28;20464;-37
2023/01/31 11:19:21;;;;;;;6.70;2.33;;;15.70;1.00;;;;;;5098135;28;20434;-39
2023/01/31 11:21:52;;;;;;;8.90;2.93;;;16.40;1.00;;;;;;5112812;28;20714;-36
2023/01/31 11:24:21;;;;;;;4.73;2.40;;;16.70;1.00;;;;;;5112405;28;20477;-38
2023/01/31 11:27:08;;;;;;;4.83;2.27;;;17.20;1.00;;;;;;5109417;28;20422;-38
2023/01/31 11:29:37;;;;;;;3.87;2.70;;;17.40;1.00;;;;;;5107930;28;20444;-37
2023/01/31 11:32:06;;;;;;;4.73;2.90;;;17.80;1.00;;;;;;5107677;28;20805;-38
2023/01/31 11:34:32;;;;;;;3.10;2.20;;;18.30;1.00;;;;;;5108395;28;20421;-38
2023/01/31 11:37:16;;;;;;;7.33;2.57;;;19.40;1.00;;;;;;5109100;28;20516;-39
2023/01/31 11:39:54;;;;;;;4.40;2.80;;;20.60;1.00;;;;;;5110871;28;20418;-38
2023/01/31 11:42:20;;;;;;;5.90;3.80;;;20.50;1.00;;;;;;5111109;28;20424;-38
2023/01/31 11:45:02;;;;;;;6.03;3.93;;;19.90;1.00;;;;;;5112689;28;20786;-39
2023/01/31 11:47:48;;;;;;;6.90;3.20;;;18.90;1.00;;;;;;5111757;28;20187;-38
2023/01/31 11:50:31;;;;;;;7.37;2.77;;;18.00;1.00;;;;;;5112699;28;20670;-38
2023/01/31 11:53:01;;;;;;;5.30;2.73;;;17.30;1.00;;;;;;5113430;28;20421;-37
2023/01/31 11:55:35;;;;;;;4.90;2.40;;;16.80;1.00;;;;;;5114125;28;20417;-38
2023/01/31 11:58:02;;;;;;;6.00;3.97;;;16.30;1.00;;;;;;5113037;28;20529;-37
2023/01/31 12:00:31;;;;;;;4.40;2.50;;;15.80;1.00;;;;;;5107655;28;20524;-38
2023/01/31 12:03:06;;;;;;;5.53;2.47;;;15.20;1.00;;;;;;5096875;28;20524;-39
2023/01/31 12:06:20;;;;;;;5.70;3.17;;;14.60;1.00;;;;;;5094108;28;20425;-37
2023/01/31 12:08:52;;;;;;;7.87;4.63;;;13.90;1.00;;;;;;5092506;28;21020;-38
2023/01/31 12:11:18;;;;;;;6.23;5.63;;;13.40;1.00;;;;;;5091601;28;20446;-37
2023/01/31 12:13:49;;;;;;;6.70;4.40;;;13.10;1.00;;;;;;5088717;28;20678;-38
2023/01/31 12:16:21;;;;;;;6.83;3.23;;;12.70;1.00;;;;;;5086118;28;20424;-38
2023/01/31 12:18:47;;;;;;;2.97;2.33;;;12.30;1.00;;;;;;5088903;28;20433;-37
2023/01/31 12:21:22;;;;;;;5.10;3.00;;;12.00;1.00;;;;;;5089730;28;20407;-38
2023/01/31 12:23:59;;;;;;;4.47;2.80;;;11.60;1.00;;;;;;5087027;28;20227;-38
2023/01/31 12:26:38;;;;;;;4.57;2.33;;;11.20;1.00;;;;;;5091121;28;20743;-38
2023/01/31 12:29:07;;;;;;;5.10;2.70;;;11.10;1.00;;;;;;5089749;28;20403;-37
2023/01/31 12:31:56;;;;;;;6.53;3.13;;;11.00;1.00;;;;;;5089925;28;20410;-37
2023/01/31 12:34:41;;;;;;;6.30;2.20;;;10.80;1.00;;;;;;5089608;28;20414;-38
2023/01/31 12:37:22;;;;;;;8.90;3.10;;;10.80;1.00;;;;;;5089568;28;20560;-37
2023/01/31 12:40:22;;;;;;;5.50;3.20;;;10.80;1.00;;;;;;5094531;28;20682;-37
2023/01/31 12:42:50;;;;;;;4.40;2.30;;;10.60;1.00;;;;;;5052158;28;20701;-36
2023/01/31 12:45:35;;;;;;;6.13;3.00;;;10.50;1.00;;;;;;5094957;28;20457;-38
2023/01/31 12:48:28;;;;;;;5.63;2.50;;;10.40;1.00;;;;;;5094759;28;20433;-38
2023/01/31 12:51:23;;;;;;;4.93;3.10;;;10.30;1.00;;;;;;5096358;28;20495;-38
2023/01/31 12:54:14;;;;;;;6.80;3.40;;;10.20;1.00;;;;;;5094974;28;20767;-38
2023/01/31 12:56:40;;;;;;;6.10;2.73;;;10.10;1.00;;;;;;5085856;28;20776;-38
2023/01/31 12:59:38;;;;;;;11.40;3.30;;;9.90;1.00;;;;;;5093798;28;20418;-38
2023/01/31 13:02:07;;;;;;;11.83;3.60;;;9.70;1.00;;;;;;5093178;28;20214;-37
2023/01/31 13:04:54;;;;;;;5.30;3.03;;;9.50;1.00;;;;;;5093085;28;20414;-36
2023/01/31 13:07:40;;;;;;;6.57;5.47;;;9.40;1.00;;;;;;5094310;28;20418;-37
2023/01/31 13:10:35;;;;;;;6.20;3.30;;;9.20;1.00;;;;;;5092548;28;20424;-38
2023/01/31 13:13:02;;;;;;;5.30;3.50;;;9.10;1.00;;;;;;5094869;28;20685;-38
2023/01/31 13:15:46;;;;;;;5.17;3.03;;;9.00;1.00;;;;;;5094887;28;20475;-38
2023/01/31 13:18:12;;;;;;;8.37;3.40;;;8.90;1.00;;;;;;5095681;28;20722;-38
2023/01/31 13:21:08;;;;;;;4.73;2.87;;;8.80;1.00;;;;;;5096813;28;20417;-38
2023/01/31 13:23:49;;;;;;;5.50;3.30;;;8.70;1.00;;;;;;5078360;28;20638;-39
2023/01/31 13:26:51;;;;;;;6.70;3.67;;;8.60;1.00;;;;;;5116553;28;20517;-39
2023/01/31 13:29:25;;;;;;;5.10;3.37;;;8.60;1.00;;;;;;5103107;27;20438;-38